sensor_id;sensor_type;location;lat;lon;timestamp;P1;durP1;ratioP1;P2;durP2;ratioP2
46719;SDS011;32452;51.382;-0.002;2024-02-04T00:01:42;2.95;;;1.10;;
46719;SDS011;32452;51.382;-0.002;2024-02-04T00:04:28;3.33;;;1.15;;
46719;SDS011;32452;51.382;-0.002;2024-02-04T00:07:14;4.03;;;1.30;;
46719;SDS011;32452;51.382;-0.002;2024-02-04T00:10:00;2.42;;;1.15;;
46719;SDS011;32452;51.382;-0.002;2024-02-04T00:12:47;2.65;;;1.00;;
46719;SDS011;32452;51.382;-0.002;2024-02-04T00:15:33;1.17;;;0.88;;
46719;SDS011;32452;51.382;-0.002;2024-02-04T00:18:18;4.63;;;1.20;;
46719;SDS011;32452;51.382;-0.002;2024-02-04T00:21:04;2.03;;;0.82;;
46719;SDS011;32452;51.382;-0.002;2024-02-04T00:23:50;3.90;;;1.13;;
46719;SDS011;32452;51.382;-0.002;2024-02-04T00:26:35;1.73;;;1.00;;
46719;SDS011;32452;51.382;-0.002;2024-02-04T00:29:21;1.35;;;0.98;;
46719;SDS011;32452;51.382;-0.002;2024-02-04T00:32:08;1.70;;;0.95;;
46719;SDS011;32452;51.382;-0.002;2024-02-04T00:34:54;1.13;;;0.57;;
46719;SDS011;32452;51.382;-0.002;2024-02-04T00:37:40;2.38;;;0.98;;
46719;SDS011;32452;51.382;-0.002;2024-02-04T00:40:25;2.33;;;0.60;;
46719;SDS011;32452;51.382;-0.002;2024-02-04T00:43:11;1.55;;;0.60;;
46719;SDS011;32452;51.382;-0.002;2024-02-04T00:45:57;0.85;;;0.43;;
46719;SDS011;32452;51.382;-0.002;2024-02-04T00:48:45;0.47;;;0.40;;
46719;SDS011;32452;51.382;-0.002;2024-02-04T00:51:31;0.82;;;0.60;;
46719;SDS011;32452;51.382;-0.002;2024-02-04T00:54:33;0.22;;;0.22;;
46719;SDS011;32452;51.382;-0.002;2024-02-04T00:57:19;0.70;;;0.50;;
46719;SDS011;32452;51.382;-0.002;2024-02-04T01:00:05;1.55;;;0.50;;
46719;SDS011;32452;51.382;-0.002;2024-02-04T01:02:52;0.98;;;0.52;;
46719;SDS011;32452;51.382;-0.002;2024-02-04T01:05:39;1.02;;;0.63;;
46719;SDS011;32452;51.382;-0.002;2024-02-04T01:08:25;2.55;;;0.60;;
46719;SDS011;32452;51.382;-0.002;2024-02-04T01:11:12;1.45;;;0.63;;
46719;SDS011;32452;51.382;-0.002;2024-02-04T01:13:58;2.30;;;0.77;;
46719;SDS011;32452;51.382;-0.002;2024-02-04T01:16:46;1.85;;;0.55;;
46719;SDS011;32452;51.382;-0.002;2024-02-04T01:19:35;2.47;;;0.70;;
46719;SDS011;32452;51.382;-0.002;2024-02-04T01:22:21;1.92;;;0.90;;
46719;SDS011;32452;51.382;-0.002;2024-02-04T01:25:11;2.03;;;0.88;;
46719;SDS011;32452;51.382;-0.002;2024-02-04T01:27:57;1.38;;;0.60;;
46719;SDS011;32452;51.382;-0.002;2024-02-04T01:30:42;2.55;;;0.70;;
46719;SDS011;32452;51.382;-0.002;2024-02-04T01:33:28;1.55;;;0.80;;
46719;SDS011;32452;51.382;-0.002;2024-02-04T01:36:14;1.27;;;0.77;;
46719;SDS011;32452;51.382;-0.002;2024-02-04T01:39:00;3.25;;;1.02;;
46719;SDS011;32452;51.382;-0.002;2024-02-04T01:41:46;4.20;;;1.30;;
46719;SDS011;32452;51.382;-0.002;2024-02-04T01:44:42;1.58;;;1.05;;
46719;SDS011;32452;51.382;-0.002;2024-02-04T01:47:28;1.05;;;0.90;;
46719;SDS011;32452;51.382;-0.002;2024-02-04T01:50:14;3.67;;;1.33;;
46719;SDS011;32452;51.382;-0.002;2024-02-04T01:53:00;1.27;;;0.88;;
46719;SDS011;32452;51.382;-0.002;2024-02-04T01:55:46;2.88;;;1.10;;
46719;SDS011;32452;51.382;-0.002;2024-02-04T01:58:34;2.67;;;1.42;;
46719;SDS011;32452;51.382;-0.002;2024-02-04T02:01:20;2.33;;;1.27;;
46719;SDS011;32452;51.382;-0.002;2024-02-04T02:04:08;2.38;;;1.33;;
46719;SDS011;32452;51.382;-0.002;2024-02-04T02:06:54;2.90;;;1.10;;
46719;SDS011;32452;51.382;-0.002;2024-02-04T02:09:41;1.40;;;0.95;;
46719;SDS011;32452;51.382;-0.002;2024-02-04T02:12:29;1.23;;;0.95;;
46719;SDS011;32452;51.382;-0.002;2024-02-04T02:15:20;1.30;;;1.20;;
46719;SDS011;32452;51.382;-0.002;2024-02-04T02:18:10;2.85;;;1.63;;
46719;SDS011;32452;51.382;-0.002;2024-02-04T02:27:24;3.35;;;0.98;;
46719;SDS011;32452;51.382;-0.002;2024-02-04T02:30:10;2.35;;;1.08;;
46719;SDS011;32452;51.382;-0.002;2024-02-04T02:32:56;2.55;;;0.82;;
46719;SDS011;32452;51.382;-0.002;2024-02-04T02:35:43;1.05;;;0.52;;
46719;SDS011;32452;51.382;-0.002;2024-02-04T02:38:46;1.48;;;1.27;;
46719;SDS011;32452;51.382;-0.002;2024-02-04T02:41:44;1.25;;;0.75;;
46719;SDS011;32452;51.382;-0.002;2024-02-04T02:44:31;0.55;;;0.45;;
46719;SDS011;32452;51.382;-0.002;2024-02-04T02:47:19;1.90;;;0.90;;
46719;SDS011;32452;51.382;-0.002;2024-02-04T02:50:06;2.50;;;0.75;;
46719;SDS011;32452;51.382;-0.002;2024-02-04T02:52:53;1.75;;;0.80;;
46719;SDS011;32452;51.382;-0.002;2024-02-04T02:55:38;1.83;;;0.80;;
46719;SDS011;32452;51.382;-0.002;2024-02-04T02:58:25;1.23;;;0.80;;
46719;SDS011;32452;51.382;-0.002;2024-02-04T03:01:11;1.30;;;0.60;;
46719;SDS011;32452;51.382;-0.002;2024-02-04T03:03:57;1.38;;;0.50;;
46719;SDS011;32452;51.382;-0.002;2024-02-04T03:06:43;0.70;;;0.68;;
46719;SDS011;32452;51.382;-0.002;2024-02-04T03:09:28;1.02;;;0.57;;
46719;SDS011;32452;51.382;-0.002;2024-02-04T03:12:14;2.15;;;0.90;;
46719;SDS011;32452;51.382;-0.002;2024-02-04T03:14:59;1.00;;;0.60;;
46719;SDS011;32452;51.382;-0.002;2024-02-04T03:17:45;0.47;;;0.35;;
46719;SDS011;32452;51.382;-0.002;2024-02-04T03:20:31;0.90;;;0.52;;
46719;SDS011;32452;51.382;-0.002;2024-02-04T03:23:16;2.15;;;0.65;;
46719;SDS011;32452;51.382;-0.002;2024-02-04T03:26:02;2.08;;;0.38;;
46719;SDS011;32452;51.382;-0.002;2024-02-04T03:28:48;0.45;;;0.40;;
46719;SDS011;32452;51.382;-0.002;2024-02-04T03:31:33;1.42;;;0.65;;
46719;SDS011;32452;51.382;-0.002;2024-02-04T03:34:19;0.47;;;0.30;;
46719;SDS011;32452;51.382;-0.002;2024-02-04T03:37:05;2.58;;;0.50;;
46719;SDS011;32452;51.382;-0.002;2024-02-04T03:39:50;1.48;;;0.50;;
46719;SDS011;32452;51.382;-0.002;2024-02-04T03:42:36;2.20;;;1.10;;
46719;SDS011;32452;51.382;-0.002;2024-02-04T03:45:21;1.23;;;0.60;;
46719;SDS011;32452;51.382;-0.002;2024-02-04T03:48:07;0.70;;;0.40;;
46719;SDS011;32452;51.382;-0.002;2024-02-04T03:50:52;1.38;;;0.52;;
46719;SDS011;32452;51.382;-0.002;2024-02-04T03:53:38;2.85;;;0.60;;
46719;SDS011;32452;51.382;-0.002;2024-02-04T03:56:24;1.02;;;0.50;;
46719;SDS011;32452;51.382;-0.002;2024-02-04T03:59:09;0.93;;;0.40;;
46719;SDS011;32452;51.382;-0.002;2024-02-04T04:01:56;0.50;;;0.40;;
46719;SDS011;32452;51.382;-0.002;2024-02-04T04:04:43;1.77;;;0.30;;
46719;SDS011;32452;51.382;-0.002;2024-02-04T04:07:32;0.40;;;0.40;;
46719;SDS011;32452;51.382;-0.002;2024-02-04T04:10:18;0.30;;;0.20;;
46719;SDS011;32452;51.382;-0.002;2024-02-04T04:13:03;0.30;;;0.20;;
46719;SDS011;32452;51.382;-0.002;2024-02-04T04:15:50;2.22;;;0.35;;
46719;SDS011;32452;51.382;-0.002;2024-02-04T04:18:36;0.70;;;0.30;;
46719;SDS011;32452;51.382;-0.002;2024-02-04T04:21:21;1.13;;;0.20;;
46719;SDS011;32452;51.382;-0.002;2024-02-04T04:24:07;0.30;;;0.30;;
46719;SDS011;32452;51.382;-0.002;2024-02-04T04:26:53;0.90;;;0.50;;
46719;SDS011;32452;51.382;-0.002;2024-02-04T04:29:38;1.10;;;0.60;;
46719;SDS011;32452;51.382;-0.002;2024-02-04T04:32:24;0.30;;;0.20;;
46719;SDS011;32452;51.382;-0.002;2024-02-04T04:35:10;1.55;;;0.30;;
46719;SDS011;32452;51.382;-0.002;2024-02-04T04:37:55;1.38;;;0.60;;
46719;SDS011;32452;51.382;-0.002;2024-02-04T04:40:41;0.38;;;0.20;;
46719;SDS011;32452;51.382;-0.002;2024-02-04T04:43:27;0.13;;;0.10;;
46719;SDS011;32452;51.382;-0.002;2024-02-04T04:46:12;1.60;;;0.45;;
46719;SDS011;32452;51.382;-0.002;2024-02-04T04:48:58;0.70;;;0.40;;
46719;SDS011;32452;51.382;-0.002;2024-02-04T04:51:44;1.33;;;0.32;;
46719;SDS011;32452;51.382;-0.002;2024-02-04T04:54:31;0.25;;;0.10;;
46719;SDS011;32452;51.382;-0.002;2024-02-04T04:57:17;2.28;;;0.40;;
46719;SDS011;32452;51.382;-0.002;2024-02-04T05:00:02;2.35;;;0.77;;
46719;SDS011;32452;51.382;-0.002;2024-02-04T05:02:52;0.90;;;0.28;;
46719;SDS011;32452;51.382;-0.002;2024-02-04T05:05:37;0.70;;;0.20;;
46719;SDS011;32452;51.382;-0.002;2024-02-04T05:08:23;0.45;;;0.22;;
46719;SDS011;32452;51.382;-0.002;2024-02-04T05:11:08;1.40;;;0.32;;
46719;SDS011;32452;51.382;-0.002;2024-02-04T05:13:54;0.20;;;0.20;;
46719;SDS011;32452;51.382;-0.002;2024-02-04T05:16:39;0.65;;;0.30;;
46719;SDS011;32452;51.382;-0.002;2024-02-04T05:19:25;1.15;;;0.30;;
46719;SDS011;32452;51.382;-0.002;2024-02-04T05:22:10;1.90;;;0.57;;
46719;SDS011;32452;51.382;-0.002;2024-02-04T05:24:56;0.68;;;0.30;;
46719;SDS011;32452;51.382;-0.002;2024-02-04T05:27:42;0.10;;;0.10;;
46719;SDS011;32452;51.382;-0.002;2024-02-04T05:30:27;0.30;;;0.20;;
46719;SDS011;32452;51.382;-0.002;2024-02-04T05:33:13;0.50;;;0.28;;
46719;SDS011;32452;51.382;-0.002;2024-02-04T05:36:00;0.57;;;0.20;;
46719;SDS011;32452;51.382;-0.002;2024-02-04T05:38:45;0.30;;;0.10;;
46719;SDS011;32452;51.382;-0.002;2024-02-04T05:41:31;0.20;;;0.20;;
46719;SDS011;32452;51.382;-0.002;2024-02-04T05:44:16;0.80;;;0.10;;
46719;SDS011;32452;51.382;-0.002;2024-02-04T05:47:02;1.88;;;0.30;;
46719;SDS011;32452;51.382;-0.002;2024-02-04T05:49:47;0.15;;;0.15;;
46719;SDS011;32452;51.382;-0.002;2024-02-04T05:52:33;1.05;;;0.20;;
46719;SDS011;32452;51.382;-0.002;2024-02-04T05:55:19;3.92;;;0.40;;
46719;SDS011;32452;51.382;-0.002;2024-02-04T05:58:04;0.30;;;0.20;;
46719;SDS011;32452;51.382;-0.002;2024-02-04T06:00:50;0.28;;;0.10;;
46719;SDS011;32452;51.382;-0.002;2024-02-04T06:03:36;1.02;;;0.17;;
46719;SDS011;32452;51.382;-0.002;2024-02-04T06:06:23;0.80;;;0.17;;
46719;SDS011;32452;51.382;-0.002;2024-02-04T06:09:09;0.10;;;0.10;;
46719;SDS011;32452;51.382;-0.002;2024-02-04T06:11:55;0.20;;;0.10;;
46719;SDS011;32452;51.382;-0.002;2024-02-04T06:14:41;0.73;;;0.25;;
46719;SDS011;32452;51.382;-0.002;2024-02-04T06:17:26;0.13;;;0.13;;
46719;SDS011;32452;51.382;-0.002;2024-02-04T06:20:12;0.10;;;0.10;;
46719;SDS011;32452;51.382;-0.002;2024-02-04T06:22:57;0.28;;;0.10;;
46719;SDS011;32452;51.382;-0.002;2024-02-04T06:25:43;0.35;;;0.25;;
46719;SDS011;32452;51.382;-0.002;2024-02-04T06:28:29;0.80;;;0.15;;
46719;SDS011;32452;51.382;-0.002;2024-02-04T06:31:14;0.57;;;0.10;;
46719;SDS011;32452;51.382;-0.002;2024-02-04T06:34:00;0.82;;;0.22;;
46719;SDS011;32452;51.382;-0.002;2024-02-04T06:36:46;0.30;;;0.20;;
46719;SDS011;32452;51.382;-0.002;2024-02-04T06:39:32;0.88;;;0.40;;
46719;SDS011;32452;51.382;-0.002;2024-02-04T06:42:17;2.50;;;0.30;;
46719;SDS011;32452;51.382;-0.002;2024-02-04T06:45:03;0.20;;;0.20;;
46719;SDS011;32452;51.382;-0.002;2024-02-04T06:47:49;2.05;;;0.30;;
46719;SDS011;32452;51.382;-0.002;2024-02-04T06:50:35;0.38;;;0.22;;
46719;SDS011;32452;51.382;-0.002;2024-02-04T06:53:21;0.38;;;0.15;;
46719;SDS011;32452;51.382;-0.002;2024-02-04T06:56:07;1.48;;;0.30;;
46719;SDS011;32452;51.382;-0.002;2024-02-04T06:58:53;0.90;;;0.25;;
46719;SDS011;32452;51.382;-0.002;2024-02-04T07:01:38;0.45;;;0.13;;
46719;SDS011;32452;51.382;-0.002;2024-02-04T07:04:24;0.20;;;0.20;;
46719;SDS011;32452;51.382;-0.002;2024-02-04T07:07:10;0.52;;;0.22;;
46719;SDS011;32452;51.382;-0.002;2024-02-04T07:09:56;1.10;;;0.30;;
46719;SDS011;32452;51.382;-0.002;2024-02-04T07:12:43;0.43;;;0.22;;
46719;SDS011;32452;51.382;-0.002;2024-02-04T07:15:29;1.02;;;0.10;;
46719;SDS011;32452;51.382;-0.002;2024-02-04T07:18:15;0.40;;;0.30;;
46719;SDS011;32452;51.382;-0.002;2024-02-04T07:21:02;0.75;;;0.30;;
46719;SDS011;32452;51.382;-0.002;2024-02-04T07:23:48;2.38;;;0.50;;
46719;SDS011;32452;51.382;-0.002;2024-02-04T07:26:33;3.20;;;0.25;;
46719;SDS011;32452;51.382;-0.002;2024-02-04T07:29:19;1.00;;;0.55;;
46719;SDS011;32452;51.382;-0.002;2024-02-04T07:32:04;2.28;;;0.30;;
46719;SDS011;32452;51.382;-0.002;2024-02-04T07:34:50;0.57;;;0.30;;
46719;SDS011;32452;51.382;-0.002;2024-02-04T07:37:36;1.05;;;0.30;;
46719;SDS011;32452;51.382;-0.002;2024-02-04T07:40:21;0.80;;;0.20;;
46719;SDS011;32452;51.382;-0.002;2024-02-04T07:43:07;0.32;;;0.20;;
46719;SDS011;32452;51.382;-0.002;2024-02-04T07:45:53;1.38;;;0.20;;
46719;SDS011;32452;51.382;-0.002;2024-02-04T07:48:38;0.50;;;0.20;;
46719;SDS011;32452;51.382;-0.002;2024-02-04T07:51:24;0.40;;;0.20;;
46719;SDS011;32452;51.382;-0.002;2024-02-04T07:54:10;1.08;;;0.55;;
46719;SDS011;32452;51.382;-0.002;2024-02-04T07:56:56;1.23;;;0.20;;
46719;SDS011;32452;51.382;-0.002;2024-02-04T07:59:41;0.17;;;0.10;;
46719;SDS011;32452;51.382;-0.002;2024-02-04T08:02:27;0.80;;;0.20;;
46719;SDS011;32452;51.382;-0.002;2024-02-04T08:05:13;1.35;;;0.30;;
46719;SDS011;32452;51.382;-0.002;2024-02-04T08:07:58;0.30;;;0.22;;
46719;SDS011;32452;51.382;-0.002;2024-02-04T08:10:44;1.10;;;0.20;;
46719;SDS011;32452;51.382;-0.002;2024-02-04T08:13:30;0.90;;;0.47;;
46719;SDS011;32452;51.382;-0.002;2024-02-04T08:16:16;1.08;;;0.20;;
46719;SDS011;32452;51.382;-0.002;2024-02-04T08:19:04;2.30;;;0.20;;
46719;SDS011;32452;51.382;-0.002;2024-02-04T08:21:51;0.75;;;0.20;;
46719;SDS011;32452;51.382;-0.002;2024-02-04T08:24:38;2.28;;;0.38;;
46719;SDS011;32452;51.382;-0.002;2024-02-04T08:27:24;2.67;;;0.43;;
46719;SDS011;32452;51.382;-0.002;2024-02-04T08:30:09;1.05;;;0.28;;
46719;SDS011;32452;51.382;-0.002;2024-02-04T08:33:00;0.65;;;0.40;;
46719;SDS011;32452;51.382;-0.002;2024-02-04T08:35:49;2.47;;;0.50;;
46719;SDS011;32452;51.382;-0.002;2024-02-04T08:38:35;2.00;;;0.32;;
46719;SDS011;32452;51.382;-0.002;2024-02-04T08:41:21;1.15;;;0.30;;
46719;SDS011;32452;51.382;-0.002;2024-02-04T08:44:07;2.33;;;0.50;;
46719;SDS011;32452;51.382;-0.002;2024-02-04T08:46:56;1.95;;;0.47;;
46719;SDS011;32452;51.382;-0.002;2024-02-04T08:49:43;0.85;;;0.50;;
46719;SDS011;32452;51.382;-0.002;2024-02-04T08:52:29;2.13;;;0.63;;
46719;SDS011;32452;51.382;-0.002;2024-02-04T08:55:16;0.55;;;0.50;;
46719;SDS011;32452;51.382;-0.002;2024-02-04T08:58:01;2.72;;;1.75;;
46719;SDS011;32452;51.382;-0.002;2024-02-04T09:00:47;2.13;;;0.55;;
46719;SDS011;32452;51.382;-0.002;2024-02-04T09:03:34;0.85;;;0.55;;
46719;SDS011;32452;51.382;-0.002;2024-02-04T09:06:20;1.48;;;0.57;;
46719;SDS011;32452;51.382;-0.002;2024-02-04T09:09:06;3.10;;;0.77;;
46719;SDS011;32452;51.382;-0.002;2024-02-04T09:11:54;1.80;;;0.80;;
46719;SDS011;32452;51.382;-0.002;2024-02-04T09:14:40;1.50;;;0.60;;
46719;SDS011;32452;51.382;-0.002;2024-02-04T09:17:25;3.50;;;0.80;;
46719;SDS011;32452;51.382;-0.002;2024-02-04T09:20:12;1.50;;;0.90;;
46719;SDS011;32452;51.382;-0.002;2024-02-04T09:22:59;1.50;;;0.50;;
46719;SDS011;32452;51.382;-0.002;2024-02-04T09:25:50;2.10;;;1.08;;
46719;SDS011;32452;51.382;-0.002;2024-02-04T09:28:38;1.10;;;0.50;;
46719;SDS011;32452;51.382;-0.002;2024-02-04T09:31:24;1.35;;;0.40;;
46719;SDS011;32452;51.382;-0.002;2024-02-04T09:34:11;3.00;;;0.50;;
46719;SDS011;32452;51.382;-0.002;2024-02-04T09:36:56;0.82;;;0.52;;
46719;SDS011;32452;51.382;-0.002;2024-02-04T09:39:43;1.75;;;0.45;;
46719;SDS011;32452;51.382;-0.002;2024-02-04T09:42:29;2.13;;;0.70;;
46719;SDS011;32452;51.382;-0.002;2024-02-04T09:45:16;2.45;;;0.60;;
46719;SDS011;32452;51.382;-0.002;2024-02-04T09:48:02;2.22;;;0.63;;
46719;SDS011;32452;51.382;-0.002;2024-02-04T09:50:48;2.75;;;1.05;;
46719;SDS011;32452;51.382;-0.002;2024-02-04T09:53:35;2.97;;;0.80;;
46719;SDS011;32452;51.382;-0.002;2024-02-04T09:56:22;2.38;;;0.52;;
46719;SDS011;32452;51.382;-0.002;2024-02-04T09:59:09;1.60;;;0.52;;
46719;SDS011;32452;51.382;-0.002;2024-02-04T10:01:54;1.35;;;0.50;;
46719;SDS011;32452;51.382;-0.002;2024-02-04T10:04:41;5.15;;;0.77;;
46719;SDS011;32452;51.382;-0.002;2024-02-04T10:07:26;1.15;;;0.40;;
46719;SDS011;32452;51.382;-0.002;2024-02-04T10:10:15;3.15;;;0.52;;
46719;SDS011;32452;51.382;-0.002;2024-02-04T10:13:07;1.75;;;0.50;;
46719;SDS011;32452;51.382;-0.002;2024-02-04T10:15:54;0.75;;;0.52;;
46719;SDS011;32452;51.382;-0.002;2024-02-04T10:18:41;2.17;;;0.60;;
46719;SDS011;32452;51.382;-0.002;2024-02-04T10:21:30;1.27;;;0.38;;
46719;SDS011;32452;51.382;-0.002;2024-02-04T10:24:16;1.70;;;0.50;;
46719;SDS011;32452;51.382;-0.002;2024-02-04T10:27:02;4.00;;;1.00;;
46719;SDS011;32452;51.382;-0.002;2024-02-04T10:29:49;0.98;;;0.73;;
46719;SDS011;32452;51.382;-0.002;2024-02-04T10:32:34;5.05;;;0.80;;
46719;SDS011;32452;51.382;-0.002;2024-02-04T10:35:20;4.50;;;0.85;;
46719;SDS011;32452;51.382;-0.002;2024-02-04T10:38:08;1.45;;;0.63;;
46719;SDS011;32452;51.382;-0.002;2024-02-04T10:40:57;3.90;;;0.93;;
46719;SDS011;32452;51.382;-0.002;2024-02-04T10:43:46;2.95;;;0.82;;
46719;SDS011;32452;51.382;-0.002;2024-02-04T10:46:33;1.58;;;0.60;;
46719;SDS011;32452;51.382;-0.002;2024-02-04T10:49:21;2.00;;;0.60;;
46719;SDS011;32452;51.382;-0.002;2024-02-04T10:52:11;4.32;;;0.55;;
46719;SDS011;32452;51.382;-0.002;2024-02-04T10:54:58;4.57;;;0.50;;
46719;SDS011;32452;51.382;-0.002;2024-02-04T10:57:45;2.58;;;0.47;;
46719;SDS011;32452;51.382;-0.002;2024-02-04T11:00:32;2.40;;;0.65;;
46719;SDS011;32452;51.382;-0.002;2024-02-04T11:03:19;2.33;;;0.50;;
46719;SDS011;32452;51.382;-0.002;2024-02-04T11:06:08;2.20;;;0.77;;
46719;SDS011;32452;51.382;-0.002;2024-02-04T11:08:56;2.60;;;0.93;;
46719;SDS011;32452;51.382;-0.002;2024-02-04T11:11:43;4.15;;;0.90;;
46719;SDS011;32452;51.382;-0.002;2024-02-04T11:14:30;2.33;;;0.55;;
46719;SDS011;32452;51.382;-0.002;2024-02-04T11:26:11;2.65;;;0.40;;
46719;SDS011;32452;51.382;-0.002;2024-02-04T11:28:59;1.48;;;0.30;;
46719;SDS011;32452;51.382;-0.002;2024-02-04T11:31:45;2.00;;;0.55;;
46719;SDS011;32452;51.382;-0.002;2024-02-04T11:34:32;1.90;;;0.43;;
46719;SDS011;32452;51.382;-0.002;2024-02-04T11:37:18;1.55;;;0.45;;
46719;SDS011;32452;51.382;-0.002;2024-02-04T11:40:05;3.78;;;1.23;;
46719;SDS011;32452;51.382;-0.002;2024-02-04T11:42:51;2.67;;;0.82;;
46719;SDS011;32452;51.382;-0.002;2024-02-04T11:45:43;4.43;;;1.50;;
46719;SDS011;32452;51.382;-0.002;2024-02-04T11:48:30;2.03;;;0.70;;
46719;SDS011;32452;51.382;-0.002;2024-02-04T11:51:24;3.95;;;0.73;;
46719;SDS011;32452;51.382;-0.002;2024-02-04T11:54:10;0.85;;;0.50;;
46719;SDS011;32452;51.382;-0.002;2024-02-04T11:56:56;2.03;;;0.82;;
46719;SDS011;32452;51.382;-0.002;2024-02-04T11:59:43;3.30;;;1.25;;
46719;SDS011;32452;51.382;-0.002;2024-02-04T12:02:29;6.75;;;0.68;;
46719;SDS011;32452;51.382;-0.002;2024-02-04T12:05:18;5.22;;;0.38;;
46719;SDS011;32452;51.382;-0.002;2024-02-04T12:08:05;2.25;;;0.57;;
46719;SDS011;32452;51.382;-0.002;2024-02-04T12:10:51;1.73;;;0.77;;
46719;SDS011;32452;51.382;-0.002;2024-02-04T12:13:37;1.65;;;0.50;;
46719;SDS011;32452;51.382;-0.002;2024-02-04T12:16:27;2.30;;;0.60;;
46719;SDS011;32452;51.382;-0.002;2024-02-04T12:19:13;3.75;;;0.68;;
46719;SDS011;32452;51.382;-0.002;2024-02-04T12:21:58;1.90;;;0.50;;
46719;SDS011;32452;51.382;-0.002;2024-02-04T12:24:44;3.13;;;0.85;;
46719;SDS011;32452;51.382;-0.002;2024-02-04T12:27:31;1.30;;;0.55;;
46719;SDS011;32452;51.382;-0.002;2024-02-04T12:30:16;0.80;;;0.63;;
46719;SDS011;32452;51.382;-0.002;2024-02-04T12:33:03;2.45;;;0.80;;
46719;SDS011;32452;51.382;-0.002;2024-02-04T12:35:51;1.60;;;0.40;;
46719;SDS011;32452;51.382;-0.002;2024-02-04T12:38:38;2.15;;;1.27;;
46719;SDS011;32452;51.382;-0.002;2024-02-04T12:41:24;1.90;;;0.30;;
46719;SDS011;32452;51.382;-0.002;2024-02-04T12:44:12;0.88;;;0.60;;
46719;SDS011;32452;51.382;-0.002;2024-02-04T12:47:03;2.05;;;1.00;;
46719;SDS011;32452;51.382;-0.002;2024-02-04T12:49:49;2.70;;;0.65;;
46719;SDS011;32452;51.382;-0.002;2024-02-04T12:52:35;3.53;;;0.80;;
46719;SDS011;32452;51.382;-0.002;2024-02-04T12:55:23;0.90;;;0.70;;
46719;SDS011;32452;51.382;-0.002;2024-02-04T12:58:12;1.48;;;0.40;;
46719;SDS011;32452;51.382;-0.002;2024-02-04T13:01:02;2.40;;;0.70;;
46719;SDS011;32452;51.382;-0.002;2024-02-04T13:03:50;0.60;;;0.40;;
46719;SDS011;32452;51.382;-0.002;2024-02-04T13:06:39;1.85;;;0.45;;
46719;SDS011;32452;51.382;-0.002;2024-02-04T13:09:26;2.53;;;0.45;;
46719;SDS011;32452;51.382;-0.002;2024-02-04T13:12:14;0.55;;;0.38;;
46719;SDS011;32452;51.382;-0.002;2024-02-04T13:15:01;1.88;;;0.40;;
46719;SDS011;32452;51.382;-0.002;2024-02-04T13:17:50;1.42;;;0.20;;
46719;SDS011;32452;51.382;-0.002;2024-02-04T13:20:36;1.45;;;0.40;;
46719;SDS011;32452;51.382;-0.002;2024-02-04T13:23:23;7.00;;;0.70;;
46719;SDS011;32452;51.382;-0.002;2024-02-04T13:26:11;0.28;;;0.22;;
46719;SDS011;32452;51.382;-0.002;2024-02-04T13:29:01;4.82;;;0.65;;
46719;SDS011;32452;51.382;-0.002;2024-02-04T13:31:48;0.70;;;0.30;;
46719;SDS011;32452;51.382;-0.002;2024-02-04T13:34:34;0.57;;;0.40;;
46719;SDS011;32452;51.382;-0.002;2024-02-04T13:37:20;0.63;;;0.40;;
46719;SDS011;32452;51.382;-0.002;2024-02-04T13:40:07;0.57;;;0.20;;
46719;SDS011;32452;51.382;-0.002;2024-02-04T13:42:53;2.08;;;0.52;;
46719;SDS011;32452;51.382;-0.002;2024-02-04T13:45:39;1.60;;;0.40;;
46719;SDS011;32452;51.382;-0.002;2024-02-04T13:48:24;2.88;;;0.60;;
46719;SDS011;32452;51.382;-0.002;2024-02-04T13:51:11;4.20;;;0.60;;
46719;SDS011;32452;51.382;-0.002;2024-02-04T13:53:56;1.75;;;0.43;;
46719;SDS011;32452;51.382;-0.002;2024-02-04T13:56:42;0.68;;;0.38;;
46719;SDS011;32452;51.382;-0.002;2024-02-04T13:59:27;1.33;;;0.50;;
46719;SDS011;32452;51.382;-0.002;2024-02-04T14:02:13;0.90;;;0.40;;
46719;SDS011;32452;51.382;-0.002;2024-02-04T14:04:59;1.35;;;0.60;;
46719;SDS011;32452;51.382;-0.002;2024-02-04T14:07:45;2.17;;;0.60;;
46719;SDS011;32452;51.382;-0.002;2024-02-04T14:10:31;3.17;;;0.95;;
46719;SDS011;32452;51.382;-0.002;2024-02-04T14:13:17;1.70;;;0.50;;
46719;SDS011;32452;51.382;-0.002;2024-02-04T14:16:02;2.97;;;0.70;;
46719;SDS011;32452;51.382;-0.002;2024-02-04T14:18:48;2.50;;;0.50;;
46719;SDS011;32452;51.382;-0.002;2024-02-04T14:21:34;5.28;;;1.05;;
46719;SDS011;32452;51.382;-0.002;2024-02-04T14:24:20;3.28;;;0.80;;
46719;SDS011;32452;51.382;-0.002;2024-02-04T14:27:05;3.58;;;0.88;;
46719;SDS011;32452;51.382;-0.002;2024-02-04T14:29:51;2.22;;;0.60;;
46719;SDS011;32452;51.382;-0.002;2024-02-04T14:32:37;3.10;;;0.90;;
46719;SDS011;32452;51.382;-0.002;2024-02-04T14:35:23;3.00;;;0.90;;
46719;SDS011;32452;51.382;-0.002;2024-02-04T14:38:08;3.63;;;1.00;;
46719;SDS011;32452;51.382;-0.002;2024-02-04T14:40:54;2.47;;;0.88;;
46719;SDS011;32452;51.382;-0.002;2024-02-04T14:43:40;1.15;;;0.60;;
46719;SDS011;32452;51.382;-0.002;2024-02-04T14:46:25;4.32;;;1.00;;
46719;SDS011;32452;51.382;-0.002;2024-02-04T14:49:11;2.50;;;1.25;;
46719;SDS011;32452;51.382;-0.002;2024-02-04T14:51:57;2.55;;;1.38;;
46719;SDS011;32452;51.382;-0.002;2024-02-04T14:54:43;3.97;;;1.27;;
46719;SDS011;32452;51.382;-0.002;2024-02-04T14:57:29;3.55;;;1.05;;
46719;SDS011;32452;51.382;-0.002;2024-02-04T15:00:15;3.05;;;1.15;;
46719;SDS011;32452;51.382;-0.002;2024-02-04T15:03:01;3.60;;;0.75;;
46719;SDS011;32452;51.382;-0.002;2024-02-04T15:05:46;1.70;;;0.98;;
46719;SDS011;32452;51.382;-0.002;2024-02-04T15:08:32;3.20;;;1.00;;
46719;SDS011;32452;51.382;-0.002;2024-02-04T15:11:18;1.05;;;0.75;;
46719;SDS011;32452;51.382;-0.002;2024-02-04T15:14:03;4.78;;;1.13;;
46719;SDS011;32452;51.382;-0.002;2024-02-04T15:16:49;4.85;;;1.17;;
46719;SDS011;32452;51.382;-0.002;2024-02-04T15:19:35;3.53;;;1.17;;
46719;SDS011;32452;51.382;-0.002;2024-02-04T15:22:21;1.90;;;0.90;;
46719;SDS011;32452;51.382;-0.002;2024-02-04T15:25:07;5.28;;;1.10;;
46719;SDS011;32452;51.382;-0.002;2024-02-04T15:27:53;3.08;;;0.95;;
46719;SDS011;32452;51.382;-0.002;2024-02-04T15:30:41;3.90;;;1.20;;
46719;SDS011;32452;51.382;-0.002;2024-02-04T15:33:27;3.88;;;1.02;;
46719;SDS011;32452;51.382;-0.002;2024-02-04T15:36:16;3.17;;;0.93;;
46719;SDS011;32452;51.382;-0.002;2024-02-04T15:39:02;2.67;;;1.15;;
46719;SDS011;32452;51.382;-0.002;2024-02-04T15:41:48;2.58;;;1.10;;
46719;SDS011;32452;51.382;-0.002;2024-02-04T15:44:33;2.05;;;0.65;;
46719;SDS011;32452;51.382;-0.002;2024-02-04T15:47:21;1.08;;;0.63;;
46719;SDS011;32452;51.382;-0.002;2024-02-04T15:50:08;3.65;;;1.15;;
46719;SDS011;32452;51.382;-0.002;2024-02-04T15:52:55;3.50;;;1.20;;
46719;SDS011;32452;51.382;-0.002;2024-02-04T15:55:40;1.70;;;0.95;;
46719;SDS011;32452;51.382;-0.002;2024-02-04T15:58:26;4.78;;;1.88;;
46719;SDS011;32452;51.382;-0.002;2024-02-04T16:01:15;4.25;;;1.17;;
46719;SDS011;32452;51.382;-0.002;2024-02-04T16:04:06;4.07;;;1.38;;
46719;SDS011;32452;51.382;-0.002;2024-02-04T16:06:53;2.45;;;1.30;;
46719;SDS011;32452;51.382;-0.002;2024-02-04T16:09:38;3.97;;;1.10;;
46719;SDS011;32452;51.382;-0.002;2024-02-04T16:12:26;6.60;;;1.38;;
46719;SDS011;32452;51.382;-0.002;2024-02-04T16:15:12;6.45;;;1.30;;
46719;SDS011;32452;51.382;-0.002;2024-02-04T16:17:58;3.33;;;1.10;;
46719;SDS011;32452;51.382;-0.002;2024-02-04T16:20:45;6.38;;;1.50;;
46719;SDS011;32452;51.382;-0.002;2024-02-04T16:23:31;4.05;;;1.40;;
46719;SDS011;32452;51.382;-0.002;2024-02-04T16:26:16;6.78;;;1.27;;
46719;SDS011;32452;51.382;-0.002;2024-02-04T16:29:02;3.75;;;1.00;;
46719;SDS011;32452;51.382;-0.002;2024-02-04T16:31:47;3.25;;;1.23;;
46719;SDS011;32452;51.382;-0.002;2024-02-04T16:34:33;4.07;;;1.30;;
46719;SDS011;32452;51.382;-0.002;2024-02-04T16:37:20;6.30;;;1.10;;
46719;SDS011;32452;51.382;-0.002;2024-02-04T16:40:06;3.83;;;1.25;;
46719;SDS011;32452;51.382;-0.002;2024-02-04T16:42:52;5.38;;;2.30;;